sensor_id;sensor_type;location;lat;lon;timestamp;P1;durP1;ratioP1;P2;durP2;ratioP2
21213;SDS011;10764;50.850;2.904;2023-03-26T00:01:23;4.95;;;1.67;;
21213;SDS011;10764;50.850;2.904;2023-03-26T00:03:51;7.37;;;1.83;;
21213;SDS011;10764;50.850;2.904;2023-03-26T00:06:20;5.75;;;1.75;;
21213;SDS011;10764;50.850;2.904;2023-03-26T00:08:48;4.90;;;1.60;;
21213;SDS011;10764;50.850;2.904;2023-03-26T00:11:17;6.13;;;1.85;;
21213;SDS011;10764;50.850;2.904;2023-03-26T00:13:45;4.90;;;1.55;;
21213;SDS011;10764;50.850;2.904;2023-03-26T00:16:13;3.88;;;1.60;;
21213;SDS011;10764;50.850;2.904;2023-03-26T00:18:42;6.55;;;1.77;;
21213;SDS011;10764;50.850;2.904;2023-03-26T00:21:11;4.82;;;1.60;;
21213;SDS011;10764;50.850;2.904;2023-03-26T00:23:40;5.95;;;1.70;;
21213;SDS011;10764;50.850;2.904;2023-03-26T00:26:08;5.82;;;1.65;;
21213;SDS011;10764;50.850;2.904;2023-03-26T00:28:37;6.03;;;1.65;;
21213;SDS011;10764;50.850;2.904;2023-03-26T00:31:06;5.50;;;1.60;;
21213;SDS011;10764;50.850;2.904;2023-03-26T00:33:34;5.32;;;1.90;;
21213;SDS011;10764;50.850;2.904;2023-03-26T00:36:04;5.53;;;1.70;;
21213;SDS011;10764;50.850;2.904;2023-03-26T00:38:37;5.07;;;1.60;;
21213;SDS011;10764;50.850;2.904;2023-03-26T00:41:06;5.22;;;1.45;;
21213;SDS011;10764;50.850;2.904;2023-03-26T00:43:44;6.70;;;1.67;;
21213;SDS011;10764;50.850;2.904;2023-03-26T00:46:12;5.03;;;1.60;;
21213;SDS011;10764;50.850;2.904;2023-03-26T00:48:39;5.55;;;1.50;;
21213;SDS011;10764;50.850;2.904;2023-03-26T00:51:11;6.20;;;1.60;;
21213;SDS011;10764;50.850;2.904;2023-03-26T00:53:43;4.57;;;1.60;;
21213;SDS011;10764;50.850;2.904;2023-03-26T00:56:11;5.78;;;1.60;;
21213;SDS011;10764;50.850;2.904;2023-03-26T00:58:39;4.43;;;1.60;;
21213;SDS011;10764;50.850;2.904;2023-03-26T01:01:07;3.53;;;1.52;;
21213;SDS011;10764;50.850;2.904;2023-03-26T01:03:39;5.20;;;1.58;;
21213;SDS011;10764;50.850;2.904;2023-03-26T01:06:23;5.50;;;1.42;;
21213;SDS011;10764;50.850;2.904;2023-03-26T01:09:01;4.88;;;1.45;;
21213;SDS011;10764;50.850;2.904;2023-03-26T01:11:32;5.38;;;1.88;;
21213;SDS011;10764;50.850;2.904;2023-03-26T01:14:05;5.35;;;1.45;;
21213;SDS011;10764;50.850;2.904;2023-03-26T01:16:41;4.30;;;1.33;;
21213;SDS011;10764;50.850;2.904;2023-03-26T01:19:12;5.55;;;1.73;;
21213;SDS011;10764;50.850;2.904;2023-03-26T01:21:57;4.07;;;1.30;;
21213;SDS011;10764;50.850;2.904;2023-03-26T01:24:24;4.88;;;1.42;;
21213;SDS011;10764;50.850;2.904;2023-03-26T01:35:10;4.68;;;1.33;;
21213;SDS011;10764;50.850;2.904;2023-03-26T01:40:40;6.10;;;1.30;;
21213;SDS011;10764;50.850;2.904;2023-03-26T01:43:31;4.82;;;1.50;;
21213;SDS011;10764;50.850;2.904;2023-03-26T01:46:01;4.57;;;1.30;;
21213;SDS011;10764;50.850;2.904;2023-03-26T01:48:36;4.45;;;1.40;;
21213;SDS011;10764;50.850;2.904;2023-03-26T01:51:05;4.03;;;1.23;;
21213;SDS011;10764;50.850;2.904;2023-03-26T01:53:34;3.97;;;1.37;;
21213;SDS011;10764;50.850;2.904;2023-03-26T01:59:05;5.28;;;1.70;;
21213;SDS011;10764;50.850;2.904;2023-03-26T02:01:49;3.85;;;1.20;;
21213;SDS011;10764;50.850;2.904;2023-03-26T02:04:32;4.68;;;1.23;;
21213;SDS011;10764;50.850;2.904;2023-03-26T02:10:19;4.60;;;1.27;;
21213;SDS011;10764;50.850;2.904;2023-03-26T02:12:52;4.28;;;1.30;;
21213;SDS011;10764;50.850;2.904;2023-03-26T02:15:20;3.95;;;1.40;;
21213;SDS011;10764;50.850;2.904;2023-03-26T02:17:47;4.45;;;1.33;;
21213;SDS011;10764;50.850;2.904;2023-03-26T02:20:15;5.07;;;1.65;;
21213;SDS011;10764;50.850;2.904;2023-03-26T02:22:44;4.77;;;1.30;;
21213;SDS011;10764;50.850;2.904;2023-03-26T02:25:16;3.65;;;1.40;;
21213;SDS011;10764;50.850;2.904;2023-03-26T02:27:45;3.38;;;1.30;;
21213;SDS011;10764;50.850;2.904;2023-03-26T02:30:14;5.25;;;1.70;;
21213;SDS011;10764;50.850;2.904;2023-03-26T02:32:46;5.70;;;1.48;;
21213;SDS011;10764;50.850;2.904;2023-03-26T02:35:19;4.47;;;1.47;;
21213;SDS011;10764;50.850;2.904;2023-03-26T02:37:50;5.03;;;1.40;;
21213;SDS011;10764;50.850;2.904;2023-03-26T02:40:19;5.50;;;1.60;;
21213;SDS011;10764;50.850;2.904;2023-03-26T02:42:48;4.05;;;1.27;;
21213;SDS011;10764;50.850;2.904;2023-03-26T02:45:15;4.00;;;1.50;;
21213;SDS011;10764;50.850;2.904;2023-03-26T02:48:00;7.40;;;1.60;;
21213;SDS011;10764;50.850;2.904;2023-03-26T02:50:49;3.90;;;1.30;;
21213;SDS011;10764;50.850;2.904;2023-03-26T02:53:42;3.58;;;1.27;;
21213;SDS011;10764;50.850;2.904;2023-03-26T02:56:31;5.90;;;1.50;;
21213;SDS011;10764;50.850;2.904;2023-03-26T02:59:14;3.72;;;1.33;;
21213;SDS011;10764;50.850;2.904;2023-03-26T03:01:43;4.57;;;1.58;;
21213;SDS011;10764;50.850;2.904;2023-03-26T03:04:12;3.13;;;1.15;;
21213;SDS011;10764;50.850;2.904;2023-03-26T03:06:39;4.72;;;1.30;;
21213;SDS011;10764;50.850;2.904;2023-03-26T03:09:06;4.28;;;1.60;;
21213;SDS011;10764;50.850;2.904;2023-03-26T03:11:56;5.60;;;1.38;;
21213;SDS011;10764;50.850;2.904;2023-03-26T03:14:23;4.05;;;1.48;;
21213;SDS011;10764;50.850;2.904;2023-03-26T03:16:52;4.53;;;1.37;;
21213;SDS011;10764;50.850;2.904;2023-03-26T03:19:20;6.57;;;1.70;;
21213;SDS011;10764;50.850;2.904;2023-03-26T03:21:47;4.18;;;1.50;;
21213;SDS011;10764;50.850;2.904;2023-03-26T03:24:14;5.18;;;1.65;;
21213;SDS011;10764;50.850;2.904;2023-03-26T03:26:46;5.00;;;1.70;;
21213;SDS011;10764;50.850;2.904;2023-03-26T03:29:33;3.70;;;1.52;;
21213;SDS011;10764;50.850;2.904;2023-03-26T03:32:29;12.80;;;6.67;;
21213;SDS011;10764;50.850;2.904;2023-03-26T03:34:59;23.15;;;21.45;;
21213;SDS011;10764;50.850;2.904;2023-03-26T03:37:27;50.20;;;46.67;;
21213;SDS011;10764;50.850;2.904;2023-03-26T03:39:56;65.38;;;61.13;;
21213;SDS011;10764;50.850;2.904;2023-03-26T03:42:26;113.37;;;105.50;;
21213;SDS011;10764;50.850;2.904;2023-03-26T03:44:56;135.70;;;126.10;;
21213;SDS011;10764;50.850;2.904;2023-03-26T03:47:41;303.83;;;280.88;;
21213;SDS011;10764;50.850;2.904;2023-03-26T03:50:09;247.90;;;229.43;;
21213;SDS011;10764;50.850;2.904;2023-03-26T03:52:42;213.35;;;197.52;;
21213;SDS011;10764;50.850;2.904;2023-03-26T03:55:10;165.70;;;153.85;;
21213;SDS011;10764;50.850;2.904;2023-03-26T03:57:44;160.43;;;148.95;;
21213;SDS011;10764;50.850;2.904;2023-03-26T04:00:17;212.50;;;196.68;;
21213;SDS011;10764;50.850;2.904;2023-03-26T04:02:56;111.60;;;104.18;;
21213;SDS011;10764;50.850;2.904;2023-03-26T04:05:26;137.10;;;127.60;;
21213;SDS011;10764;50.850;2.904;2023-03-26T04:07:53;79.10;;;73.88;;
21213;SDS011;10764;50.850;2.904;2023-03-26T04:10:38;211.35;;;195.95;;
21213;SDS011;10764;50.850;2.904;2023-03-26T04:13:31;212.10;;;196.50;;
21213;SDS011;10764;50.850;2.904;2023-03-26T04:16:17;200.10;;;185.52;;
21213;SDS011;10764;50.850;2.904;2023-03-26T04:18:46;265.42;;;245.20;;
21213;SDS011;10764;50.850;2.904;2023-03-26T04:21:13;270.27;;;249.98;;
21213;SDS011;10764;50.850;2.904;2023-03-26T04:23:42;266.38;;;246.18;;
21213;SDS011;10764;50.850;2.904;2023-03-26T04:26:29;260.80;;;241.17;;
21213;SDS011;10764;50.850;2.904;2023-03-26T04:29:07;299.60;;;277.20;;
21213;SDS011;10764;50.850;2.904;2023-03-26T04:31:38;351.42;;;324.98;;
21213;SDS011;10764;50.850;2.904;2023-03-26T04:34:07;291.25;;;269.35;;
21213;SDS011;10764;50.850;2.904;2023-03-26T04:36:50;283.77;;;262.35;;
21213;SDS011;10764;50.850;2.904;2023-03-26T04:39:22;399.88;;;369.45;;
21213;SDS011;10764;50.850;2.904;2023-03-26T04:42:14;435.67;;;402.67;;
21213;SDS011;10764;50.850;2.904;2023-03-26T04:44:57;350.30;;;324.02;;
21213;SDS011;10764;50.850;2.904;2023-03-26T04:47:25;307.02;;;284.05;;
21213;SDS011;10764;50.850;2.904;2023-03-26T04:49:54;420.08;;;388.75;;
21213;SDS011;10764;50.850;2.904;2023-03-26T04:52:21;496.45;;;458.67;;
21213;SDS011;10764;50.850;2.904;2023-03-26T04:58:01;443.70;;;410.45;;
21213;SDS011;10764;50.850;2.904;2023-03-26T05:00:53;559.67;;;517.22;;
21213;SDS011;10764;50.850;2.904;2023-03-26T05:03:20;460.33;;;425.60;;
21213;SDS011;10764;50.850;2.904;2023-03-26T05:05:48;365.17;;;338.00;;
21213;SDS011;10764;50.850;2.904;2023-03-26T05:08:15;482.38;;;445.88;;
21213;SDS011;10764;50.850;2.904;2023-03-26T05:10:42;456.60;;;421.90;;
21213;SDS011;10764;50.850;2.904;2023-03-26T05:13:13;255.70;;;236.63;;
21213;SDS011;10764;50.850;2.904;2023-03-26T05:15:46;286.83;;;265.45;;
21213;SDS011;10764;50.850;2.904;2023-03-26T05:18:22;218.82;;;202.73;;
21213;SDS011;10764;50.850;2.904;2023-03-26T05:20:51;248.63;;;230.13;;
21213;SDS011;10764;50.850;2.904;2023-03-26T05:23:18;213.37;;;197.50;;
21213;SDS011;10764;50.850;2.904;2023-03-26T05:25:52;252.63;;;233.65;;
21213;SDS011;10764;50.850;2.904;2023-03-26T05:28:22;327.67;;;303.17;;
21213;SDS011;10764;50.850;2.904;2023-03-26T05:30:57;301.13;;;278.63;;
21213;SDS011;10764;50.850;2.904;2023-03-26T05:33:30;306.85;;;283.73;;
21213;SDS011;10764;50.850;2.904;2023-03-26T05:36:03;204.68;;;189.65;;
21213;SDS011;10764;50.850;2.904;2023-03-26T05:38:33;292.85;;;270.85;;
21213;SDS011;10764;50.850;2.904;2023-03-26T05:41:04;353.40;;;326.67;;
21213;SDS011;10764;50.850;2.904;2023-03-26T05:43:34;358.93;;;331.70;;
21213;SDS011;10764;50.850;2.904;2023-03-26T05:46:08;271.43;;;251.13;;
21213;SDS011;10764;50.850;2.904;2023-03-26T05:48:36;178.55;;;165.65;;
21213;SDS011;10764;50.850;2.904;2023-03-26T05:51:04;252.57;;;233.65;;
21213;SDS011;10764;50.850;2.904;2023-03-26T05:53:32;253.37;;;234.47;;
21213;SDS011;10764;50.850;2.904;2023-03-26T05:56:37;320.13;;;296.02;;
21213;SDS011;10764;50.850;2.904;2023-03-26T05:59:26;300.58;;;277.77;;
21213;SDS011;10764;50.850;2.904;2023-03-26T06:02:12;334.90;;;309.58;;
21213;SDS011;10764;50.850;2.904;2023-03-26T06:04:57;354.60;;;327.83;;
21213;SDS011;10764;50.850;2.904;2023-03-26T06:07:32;412.00;;;380.50;;
21213;SDS011;10764;50.850;2.904;2023-03-26T06:10:10;469.60;;;434.25;;
21213;SDS011;10764;50.850;2.904;2023-03-26T06:12:44;442.50;;;409.25;;
21213;SDS011;10764;50.850;2.904;2023-03-26T06:15:11;461.33;;;426.65;;
21213;SDS011;10764;50.850;2.904;2023-03-26T06:17:46;678.67;;;626.55;;
21213;SDS011;10764;50.850;2.904;2023-03-26T06:20:31;651.78;;;602.33;;
21213;SDS011;10764;50.850;2.904;2023-03-26T06:23:01;397.65;;;367.88;;
21213;SDS011;10764;50.850;2.904;2023-03-26T06:25:57;461.83;;;427.13;;
21213;SDS011;10764;50.850;2.904;2023-03-26T06:29:00;277.80;;;257.13;;
21213;SDS011;10764;50.850;2.904;2023-03-26T06:31:43;380.00;;;351.10;;
21213;SDS011;10764;50.850;2.904;2023-03-26T06:34:14;720.92;;;665.97;;
21213;SDS011;10764;50.850;2.904;2023-03-26T06:36:42;542.15;;;500.65;;
21213;SDS011;10764;50.850;2.904;2023-03-26T06:39:09;647.33;;;597.45;;
21213;SDS011;10764;50.850;2.904;2023-03-26T06:41:42;826.85;;;765.63;;
21213;SDS011;10764;50.850;2.904;2023-03-26T06:44:19;767.22;;;709.67;;
21213;SDS011;10764;50.850;2.904;2023-03-26T06:47:12;659.33;;;608.10;;
21213;SDS011;10764;50.850;2.904;2023-03-26T06:49:48;134.02;;;124.82;;
21213;SDS011;10764;50.850;2.904;2023-03-26T06:52:36;181.73;;;168.50;;
21213;SDS011;10764;50.850;2.904;2023-03-26T06:55:21;189.20;;;175.65;;
21213;SDS011;10764;50.850;2.904;2023-03-26T06:58:11;331.98;;;307.50;;
21213;SDS011;10764;50.850;2.904;2023-03-26T07:00:54;239.37;;;221.87;;
21213;SDS011;10764;50.850;2.904;2023-03-26T07:03:40;188.20;;;174.73;;
21213;SDS011;10764;50.850;2.904;2023-03-26T07:06:27;192.77;;;178.98;;
21213;SDS011;10764;50.850;2.904;2023-03-26T07:09:13;184.70;;;171.63;;
21213;SDS011;10764;50.850;2.904;2023-03-26T07:12:06;247.55;;;229.20;;
21213;SDS011;10764;50.850;2.904;2023-03-26T07:15:03;304.47;;;281.47;;
21213;SDS011;10764;50.850;2.904;2023-03-26T07:17:50;293.98;;;271.90;;
21213;SDS011;10764;50.850;2.904;2023-03-26T07:20:29;304.58;;;281.65;;
21213;SDS011;10764;50.850;2.904;2023-03-26T07:22:57;302.13;;;279.25;;
21213;SDS011;10764;50.850;2.904;2023-03-26T07:25:47;279.33;;;258.45;;
21213;SDS011;10764;50.850;2.904;2023-03-26T07:28:38;314.50;;;290.92;;
21213;SDS011;10764;50.850;2.904;2023-03-26T07:41:28;306.88;;;283.77;;
21213;SDS011;10764;50.850;2.904;2023-03-26T07:47:36;317.92;;;293.98;;
21213;SDS011;10764;50.850;2.904;2023-03-26T07:50:15;384.23;;;354.95;;
21213;SDS011;10764;50.850;2.904;2023-03-26T07:53:07;443.08;;;409.48;;
21213;SDS011;10764;50.850;2.904;2023-03-26T07:56:13;373.10;;;344.98;;
21213;SDS011;10764;50.850;2.904;2023-03-26T08:08:30;459.20;;;424.27;;
21213;SDS011;10764;50.850;2.904;2023-03-26T08:17:20;565.73;;;522.33;;
21213;SDS011;10764;50.850;2.904;2023-03-26T08:22:49;588.47;;;542.40;;
21213;SDS011;10764;50.850;2.904;2023-03-26T08:28:28;693.17;;;639.30;;
21213;SDS011;10764;50.850;2.904;2023-03-26T08:31:09;613.70;;;565.40;;
21213;SDS011;10764;50.850;2.904;2023-03-26T08:33:38;552.35;;;508.67;;
21213;SDS011;10764;50.850;2.904;2023-03-26T08:36:13;641.67;;;590.83;;
21213;SDS011;10764;50.850;2.904;2023-03-26T08:38:42;553.83;;;510.42;;
21213;SDS011;10764;50.850;2.904;2023-03-26T08:41:20;558.20;;;514.55;;
21213;SDS011;10764;50.850;2.904;2023-03-26T08:53:23;659.00;;;607.45;;
21213;SDS011;10764;50.850;2.904;2023-03-26T08:56:19;749.55;;;692.05;;
21213;SDS011;10764;50.850;2.904;2023-03-26T09:04:39;723.22;;;667.17;;
21213;SDS011;10764;50.850;2.904;2023-03-26T09:07:57;800.35;;;739.78;;
21213;SDS011;10764;50.850;2.904;2023-03-26T09:13:25;608.28;;;561.00;;
21213;SDS011;10764;50.850;2.904;2023-03-26T09:21:41;416.02;;;383.98;;
21213;SDS011;10764;50.850;2.904;2023-03-26T09:24:34;411.88;;;379.90;;
21213;SDS011;10764;50.850;2.904;2023-03-26T09:35:44;375.48;;;346.48;;
21213;SDS011;10764;50.850;2.904;2023-03-26T09:38:29;231.93;;;214.05;;
21213;SDS011;10764;50.850;2.904;2023-03-26T09:42:04;232.23;;;214.50;;
21213;SDS011;10764;50.850;2.904;2023-03-26T09:49:47;208.03;;;191.90;;
21213;SDS011;10764;50.850;2.904;2023-03-26T10:00:47;421.20;;;388.63;;
21213;SDS011;10764;50.850;2.904;2023-03-26T10:03:48;380.27;;;350.65;;
21213;SDS011;10764;50.850;2.904;2023-03-26T10:06:19;397.65;;;367.33;;
21213;SDS011;10764;50.850;2.904;2023-03-26T10:09:28;353.75;;;326.75;;
21213;SDS011;10764;50.850;2.904;2023-03-26T10:14:53;398.98;;;368.48;;
21213;SDS011;10764;50.850;2.904;2023-03-26T10:21:03;348.17;;;321.75;;
21213;SDS011;10764;50.850;2.904;2023-03-26T10:26:33;451.13;;;416.70;;
21213;SDS011;10764;50.850;2.904;2023-03-26T10:38:15;413.15;;;381.55;;
21213;SDS011;10764;50.850;2.904;2023-03-26T10:41:00;370.15;;;341.70;;
21213;SDS011;10764;50.850;2.904;2023-03-26T10:43:52;388.92;;;359.02;;
21213;SDS011;10764;50.850;2.904;2023-03-26T10:49:27;389.23;;;359.52;;
21213;SDS011;10764;50.850;2.904;2023-03-26T10:52:21;398.10;;;367.77;;
21213;SDS011;10764;50.850;2.904;2023-03-26T10:55:13;420.88;;;388.42;;
21213;SDS011;10764;50.850;2.904;2023-03-26T10:57:44;390.15;;;360.50;;
21213;SDS011;10764;50.850;2.904;2023-03-26T11:00:19;409.98;;;378.60;;
21213;SDS011;10764;50.850;2.904;2023-03-26T11:13:43;377.95;;;347.08;;
21213;SDS011;10764;50.850;2.904;2023-03-26T11:16:24;534.90;;;493.45;;
21213;SDS011;10764;50.850;2.904;2023-03-26T11:21:45;479.88;;;442.70;;
21213;SDS011;10764;50.850;2.904;2023-03-26T11:27:24;558.83;;;515.53;;
21213;SDS011;10764;50.850;2.904;2023-03-26T11:32:44;614.90;;;566.78;;
21213;SDS011;10764;50.850;2.904;2023-03-26T11:35:35;576.15;;;531.55;;
21213;SDS011;10764;50.850;2.904;2023-03-26T11:40:49;469.25;;;433.13;;
21213;SDS011;10764;50.850;2.904;2023-03-26T11:43:39;589.27;;;543.40;;
21213;SDS011;10764;50.850;2.904;2023-03-26T11:46:09;514.58;;;474.88;;
21213;SDS011;10764;50.850;2.904;2023-03-26T11:48:44;502.25;;;463.13;;
21213;SDS011;10764;50.850;2.904;2023-03-26T11:51:56;669.22;;;617.22;;
21213;SDS011;10764;50.850;2.904;2023-03-26T11:54:05;685.28;;;631.95;;
21213;SDS011;10764;50.850;2.904;2023-03-26T12:02:28;851.25;;;788.03;;
21213;SDS011;10764;50.850;2.904;2023-03-26T12:05:45;551.83;;;508.80;;
21213;SDS011;10764;50.850;2.904;2023-03-26T12:07:56;540.05;;;498.25;;
21213;SDS011;10764;50.850;2.904;2023-03-26T12:10:34;422.50;;;389.75;;
21213;SDS011;10764;50.850;2.904;2023-03-26T12:13:27;545.55;;;502.88;;
21213;SDS011;10764;50.850;2.904;2023-03-26T12:16:08;557.55;;;514.15;;
21213;SDS011;10764;50.850;2.904;2023-03-26T12:18:43;650.42;;;599.42;;
21213;SDS011;10764;50.850;2.904;2023-03-26T12:21:13;648.85;;;597.80;;
21213;SDS011;10764;50.850;2.904;2023-03-26T12:29:05;427.02;;;393.90;;
21213;SDS011;10764;50.850;2.904;2023-03-26T12:31:43;590.70;;;544.88;;
21213;SDS011;10764;50.850;2.904;2023-03-26T12:34:13;754.10;;;697.60;;
21213;SDS011;10764;50.850;2.904;2023-03-26T12:40:30;626.28;;;577.58;;
21213;SDS011;10764;50.850;2.904;2023-03-26T12:43:01;608.75;;;561.38;;
21213;SDS011;10764;50.850;2.904;2023-03-26T12:45:53;653.88;;;602.78;;
21213;SDS011;10764;50.850;2.904;2023-03-26T12:48:42;703.05;;;648.22;;
21213;SDS011;10764;50.850;2.904;2023-03-26T12:54:21;897.17;;;831.80;;
21213;SDS011;10764;50.850;2.904;2023-03-26T12:59:45;749.78;;;692.17;;
21213;SDS011;10764;50.850;2.904;2023-03-26T13:02:30;844.83;;;782.10;;
21213;SDS011;10764;50.850;2.904;2023-03-26T13:10:25;880.13;;;815.25;;
21213;SDS011;10764;50.850;2.904;2023-03-26T13:13:13;737.00;;;681.20;;
21213;SDS011;10764;50.850;2.904;2023-03-26T13:19:01;860.08;;;796.53;;
21213;SDS011;10764;50.850;2.904;2023-03-26T13:21:58;644.13;;;593.53;;
21213;SDS011;10764;50.850;2.904;2023-03-26T13:39:26;298.70;;;275.65;;
21213;SDS011;10764;50.850;2.904;2023-03-26T13:44:55;345.58;;;318.88;;
21213;SDS011;10764;50.850;2.904;2023-03-26T13:47:45;276.17;;;255.02;;
21213;SDS011;10764;50.850;2.904;2023-03-26T13:50:19;676.58;;;623.58;;
21213;SDS011;10764;50.850;2.904;2023-03-26T13:52:59;718.50;;;662.80;;
21213;SDS011;10764;50.850;2.904;2023-03-26T13:55:41;328.35;;;303.08;;
21213;SDS011;10764;50.850;2.904;2023-03-26T13:58:13;636.28;;;586.75;;
21213;SDS011;10764;50.850;2.904;2023-03-26T14:01:07;590.80;;;544.78;;
21213;SDS011;10764;50.850;2.904;2023-03-26T14:06:44;608.83;;;560.95;;
21213;SDS011;10764;50.850;2.904;2023-03-26T14:09:28;710.85;;;655.65;;
21213;SDS011;10764;50.850;2.904;2023-03-26T14:14:57;731.67;;;674.67;;
21213;SDS011;10764;50.850;2.904;2023-03-26T14:17:47;657.03;;;604.85;;
21213;SDS011;10764;50.850;2.904;2023-03-26T14:26:49;681.70;;;628.00;;
21213;SDS011;10764;50.850;2.904;2023-03-26T14:32:44;774.88;;;715.78;;
21213;SDS011;10764;50.850;2.904;2023-03-26T14:38:22;688.88;;;634.55;;
21213;SDS011;10764;50.850;2.904;2023-03-26T14:46:24;803.97;;;742.85;;
21213;SDS011;10764;50.850;2.904;2023-03-26T14:55:00;849.45;;;786.22;;
21213;SDS011;10764;50.850;2.904;2023-03-26T15:20:37;854.78;;;791.00;;
21213;SDS011;10764;50.850;2.904;2023-03-26T15:36:41;758.13;;;699.90;;
21213;SDS011;10764;50.850;2.904;2023-03-26T15:47:42;657.42;;;605.17;;
21213;SDS011;10764;50.850;2.904;2023-03-26T15:50:29;709.38;;;653.72;;
21213;SDS011;10764;50.850;2.904;2023-03-26T16:07:03;872.85;;;807.80;;
21213;SDS011;10764;50.850;2.904;2023-03-26T16:12:26;688.72;;;634.38;;
21213;SDS011;10764;50.850;2.904;2023-03-26T16:20:53;850.15;;;786.33;;
21213;SDS011;10764;50.850;2.904;2023-03-26T16:26:35;1016.92;;;943.25;;
21213;SDS011;10764;50.850;2.904;2023-03-26T16:42:50;1028.53;;;953.50;;
21213;SDS011;10764;50.850;2.904;2023-03-26T16:45:48;1050.68;;;973.17;;
21213;SDS011;10764;50.850;2.904;2023-03-26T16:51:05;1067.13;;;987.13;;
21213;SDS011;10764;50.850;2.904;2023-03-26T17:01:58;1056.03;;;978.25;;
21213;SDS011;10764;50.850;2.904;2023-03-26T17:04:38;960.53;;;890.30;;
21213;SDS011;10764;50.850;2.904;2023-03-26T17:07:19;760.53;;;702.25;;
21213;SDS011;10764;50.850;2.904;2023-03-26T17:12:40;1031.13;;;956.43;;
21213;SDS011;10764;50.850;2.904;2023-03-26T17:15:21;1069.32;;;986.63;;
21213;SDS011;10764;50.850;2.904;2023-03-26T17:18:11;1071.17;;;990.40;;
21213;SDS011;10764;50.850;2.904;2023-03-26T17:20:50;958.38;;;887.30;;
21213;SDS011;10764;50.850;2.904;2023-03-26T17:26:38;831.72;;;768.47;;
21213;SDS011;10764;50.850;2.904;2023-03-26T17:29:25;876.30;;;810.30;;
21213;SDS011;10764;50.850;2.904;2023-03-26T17:32:14;896.35;;;829.45;;
21213;SDS011;10764;50.850;2.904;2023-03-26T17:45:01;815.97;;;753.90;;
21213;SDS011;10764;50.850;2.904;2023-03-26T17:47:57;625.28;;;575.83;;
21213;SDS011;10764;50.850;2.904;2023-03-26T17:50:40;609.03;;;560.63;;
21213;SDS011;10764;50.850;2.904;2023-03-26T17:53:18;665.77;;;613.60;;
21213;SDS011;10764;50.850;2.904;2023-03-26T17:55:54;690.20;;;636.00;;
21213;SDS011;10764;50.850;2.904;2023-03-26T17:58:29;617.70;;;568.53;;
21213;SDS011;10764;50.850;2.904;2023-03-26T18:03:51;872.53;;;807.53;;
21213;SDS011;10764;50.850;2.904;2023-03-26T18:12:20;1036.70;;;961.45;;
21213;SDS011;10764;50.850;2.904;2023-03-26T18:20:55;711.78;;;656.35;;
21213;SDS011;10764;50.850;2.904;2023-03-26T18:23:34;635.15;;;584.90;;
21213;SDS011;10764;50.850;2.904;2023-03-26T18:26:14;688.20;;;633.45;;
21213;SDS011;10764;50.850;2.904;2023-03-26T18:28:48;609.00;;;560.28;;
21213;SDS011;10764;50.850;2.904;2023-03-26T18:31:22;588.05;;;541.45;;
21213;SDS011;10764;50.850;2.904;2023-03-26T18:33:53;613.80;;;564.50;;
21213;SDS011;10764;50.850;2.904;2023-03-26T18:36:25;568.33;;;523.30;;
21213;SDS011;10764;50.850;2.904;2023-03-26T18:38:59;565.05;;;520.22;;
21213;SDS011;10764;50.850;2.904;2023-03-26T18:41:27;556.78;;;512.55;;
21213;SDS011;10764;50.850;2.904;2023-03-26T18:44:01;734.97;;;678.00;;
21213;SDS011;10764;50.850;2.904;2023-03-26T18:46:31;573.83;;;527.92;;
21213;SDS011;10764;50.850;2.904;2023-03-26T18:48:59;824.17;;;760.70;;
21213;SDS011;10764;50.850;2.904;2023-03-26T18:51:28;994.28;;;921.60;;
21213;SDS011;10764;50.850;2.904;2023-03-26T18:53:57;1040.30;;;963.88;;
21213;SDS011;10764;50.850;2.904;2023-03-26T18:56:35;1080.40;;;999.70;;
21213;SDS011;10764;50.850;2.904;2023-03-26T18:59:05;1081.90;;;999.90;;
21213;SDS011;10764;50.850;2.904;2023-03-26T19:01:47;1015.97;;;941.88;;
21213;SDS011;10764;50.850;2.904;2023-03-26T19:04:16;1045.60;;;969.20;;
21213;SDS011;10764;50.850;2.904;2023-03-26T19:06:43;900.97;;;833.85;;
21213;SDS011;10764;50.850;2.904;2023-03-26T19:09:11;1002.05;;;928.83;;
21213;SDS011;10764;50.850;2.904;2023-03-26T19:12:07;983.40;;;911.20;;
21213;SDS011;10764;50.850;2.904;2023-03-26T19:17:43;967.20;;;896.38;;
21213;SDS011;10764;50.850;2.904;2023-03-26T19:20:16;1005.58;;;932.35;;
21213;SDS011;10764;50.850;2.904;2023-03-26T19:22:46;990.03;;;917.83;;
21213;SDS011;10764;50.850;2.904;2023-03-26T19:25:21;936.45;;;867.50;;
21213;SDS011;10764;50.850;2.904;2023-03-26T19:28:05;963.20;;;891.17;;
21213;SDS011;10764;50.850;2.904;2023-03-26T19:30:39;950.78;;;881.20;;
21213;SDS011;10764;50.850;2.904;2023-03-26T19:33:12;889.10;;;822.80;;
21213;SDS011;10764;50.850;2.904;2023-03-26T19:35:44;1003.47;;;930.55;;
21213;SDS011;10764;50.850;2.904;2023-03-26T19:38:26;1028.10;;;953.30;;
21213;SDS011;10764;50.850;2.904;2023-03-26T19:40:54;954.85;;;884.80;;
21213;SDS011;10764;50.850;2.904;2023-03-26T19:43:23;943.53;;;874.53;;
21213;SDS011;10764;50.850;2.904;2023-03-26T19:45:52;909.95;;;842.80;;
21213;SDS011;10764;50.850;2.904;2023-03-26T19:48:27;979.50;;;908.03;;
21213;SDS011;10764;50.850;2.904;2023-03-26T19:51:16;1012.95;;;939.17;;
21213;SDS011;10764;50.850;2.904;2023-03-26T19:53:52;1028.07;;;951.87;;
21213;SDS011;10764;50.850;2.904;2023-03-26T19:56:21;1074.70;;;994.72;;
21213;SDS011;10764;50.850;2.904;2023-03-26T19:58:48;1082.13;;;999.75;;
21213;SDS011;10764;50.850;2.904;2023-03-26T20:01:18;1074.43;;;991.67;;
21213;SDS011;10764;50.850;2.904;2023-03-26T20:03:48;1069.15;;;988.67;;
21213;SDS011;10764;50.850;2.904;2023-03-26T20:06:18;1083.75;;;994.50;;
21213;SDS011;10764;50.850;2.904;2023-03-26T20:09:03;1084.85;;;994.22;;
21213;SDS011;10764;50.850;2.904;2023-03-26T20:11:32;1060.00;;;981.38;;
21213;SDS011;10764;50.850;2.904;2023-03-26T20:14:06;1084.28;;;999.10;;
21213;SDS011;10764;50.850;2.904;2023-03-26T20:16:41;1084.47;;;999.70;;
21213;SDS011;10764;50.850;2.904;2023-03-26T20:19:11;1084.20;;;999.90;;
21213;SDS011;10764;50.850;2.904;2023-03-26T20:21:39;1069.60;;;989.35;;
21213;SDS011;10764;50.850;2.904;2023-03-26T20:24:11;1071.20;;;990.88;;
21213;SDS011;10764;50.850;2.904;2023-03-26T20:26:46;1059.13;;;980.80;;
21213;SDS011;10764;50.850;2.904;2023-03-26T20:29:13;1035.55;;;959.95;;
21213;SDS011;10764;50.850;2.904;2023-03-26T20:31:41;949.30;;;879.85;;
21213;SDS011;10764;50.850;2.904;2023-03-26T20:34:12;916.90;;;849.10;;
21213;SDS011;10764;50.850;2.904;2023-03-26T20:36:44;936.55;;;867.35;;
21213;SDS011;10764;50.850;2.904;2023-03-26T20:39:12;888.40;;;822.38;;
21213;SDS011;10764;50.850;2.904;2023-03-26T20:41:41;868.35;;;803.42;;
21213;SDS011;10764;50.850;2.904;2023-03-26T20:44:11;900.47;;;833.63;;
21213;SDS011;10764;50.850;2.904;2023-03-26T20:46:41;946.08;;;876.80;;
21213;SDS011;10764;50.850;2.904;2023-03-26T20:49:09;883.85;;;818.00;;
21213;SDS011;10764;50.850;2.904;2023-03-26T20:51:37;881.13;;;815.50;;